Accueil
METAR-TAF:

METAR-TAF

Aéroports :

Amman, Jordanie

Aéroport civil d'Amman

latitude: 31-59N, longitude: 035-59E, altitude: 767 m

Observation

Le bulletin a été fait il y a 50 minutes, à 01:00 UTC
Vent 3 kt de ouest
Température 22°C
Humidité 53%
Pression 1014 hPa
Visibilité: 5000 m
brume sèche

METAR: OJAM 190100Z 26003KT 5000 HZ NSC 22/12 Q1014 NOSIG

Heure: 04:50 (01:50 UTC)

Prévision

Le bulletin a été fait il y a 3 heures et 0 minutes, à 22:50 UTC
Prévision valable du 19 à 00 UTC au 20 à 06 UTC
Vent 12 kt de ouest/nord-ouest
Visibilité: 5000 m
brume sèche
Temporairement
du 19 à 02 UTC au 19 à 06 UTC
Visibilité: 3500 m

TAF: OJAM 182250Z 1900/2006 29012KT 5000 HZ NSC TEMPO 1902/1906 3500

Observations et prévisions météorologiques de plus de 4000 aéroports (messages METAR et TAF).

Les stations disponibles sont représentées par des disques jaunes et rouges sur la carte.

Passer la souris dessus pour voir le nom de la station.

Cliquer dessus pour voir les observations et prévisions météorologiques.

Pour changer de carte: cliquez sur les boutons verts avec une croix noire pour zoomer, sur le bouton vert avec un tiret pour effectuer un zoom arrière, ou sur les flèches vertes pour les cartes adjacentes.


METAR-TAF: